createdAt,value
2018-12-22T00:00:10.867Z,6.13
2018-12-22T00:01:21.267Z,6.21
2018-12-22T00:02:31.406Z,6.09
2018-12-22T00:03:41.479Z,6.15
2018-12-22T00:04:51.573Z,6.2
2018-12-22T00:06:02.404Z,6.15
2018-12-22T00:07:12.500Z,6.13
2018-12-22T00:08:22.818Z,6.24
2018-12-22T00:09:32.990Z,6.18
2018-12-22T00:10:43.082Z,6.15
2018-12-22T00:11:53.229Z,6.2
2018-12-22T00:13:03.399Z,6.26
2018-12-22T00:14:13.591Z,6.21
2018-12-22T00:15:23.816Z,6.25
2018-12-22T00:16:33.940Z,6.31
2018-12-22T00:17:43.838Z,6.26
2018-12-22T00:18:53.970Z,6.28
2018-12-22T00:20:04.503Z,6.29
2018-12-22T00:21:14.562Z,6.26
2018-12-22T00:22:24.622Z,6.36
2018-12-22T00:23:34.441Z,6.28
2018-12-22T00:24:44.492Z,6.28
2018-12-22T00:25:54.603Z,6.42
2018-12-22T00:27:04.704Z,6.4
2018-12-22T00:28:21.944Z,6.29
2018-12-22T00:29:32.196Z,6.4
2018-12-22T00:30:42.023Z,6.39
2018-12-22T00:31:52.100Z,6.42
2018-12-22T00:33:02.173Z,6.36
2018-12-22T00:34:12.231Z,6.37
2018-12-22T00:35:22.042Z,6.46
2018-12-22T00:36:32.074Z,6.47
2018-12-22T00:37:41.936Z,6.49
2018-12-22T00:38:51.775Z,6.42
2018-12-22T00:40:01.957Z,6.43
2018-12-22T00:41:11.803Z,6.49
2018-12-22T00:42:21.635Z,6.44
2018-12-22T00:43:31.738Z,6.46
2018-12-22T00:44:41.814Z,6.49
2018-12-22T00:45:51.673Z,6.52
2018-12-22T00:47:01.742Z,6.54
2018-12-22T00:48:11.826Z,6.44
2018-12-22T00:49:21.896Z,6.49
2018-12-22T00:50:31.983Z,6.49
2018-12-22T00:51:41.807Z,6.43
2018-12-22T00:52:51.890Z,6.52
2018-12-22T00:54:01.977Z,6.55
2018-12-22T00:55:12.181Z,6.49
2018-12-22T00:56:22.268Z,6.57
2018-12-22T00:57:32.065Z,6.55
2018-12-22T00:58:41.927Z,6.57
2018-12-22T00:59:51.992Z,6.58
2018-12-22T01:01:01.814Z,6.61
2018-12-22T01:02:11.403Z,6.54
2018-12-22T01:03:21.225Z,6.61
2018-12-22T01:04:31.407Z,6.7
2018-12-22T01:05:41.212Z,6.67
2018-12-22T01:06:52.677Z,6.73
2018-12-22T01:08:05.997Z,6.7
2018-12-22T01:09:16.221Z,6.73
2018-12-22T01:10:26.315Z,6.67
2018-12-22T01:11:36.142Z,6.73
2018-12-22T01:12:46.452Z,6.72
2018-12-22T01:13:56.270Z,6.76
2018-12-22T01:15:08.006Z,6.65
2018-12-22T01:16:17.822Z,6.83
2018-12-22T01:17:27.905Z,6.73
2018-12-22T01:18:38.119Z,6.78
2018-12-22T01:19:48.191Z,6.73
2018-12-22T01:20:58.336Z,6.78
2018-12-22T01:22:09.164Z,6.79
2018-12-22T01:23:19.218Z,6.83
2018-12-22T01:24:29.301Z,6.86
2018-12-22T01:25:39.397Z,6.86
2018-12-22T01:26:49.218Z,6.91
2018-12-22T01:27:59.286Z,6.88
2018-12-22T01:29:11.548Z,6.94
2018-12-22T01:30:21.610Z,6.98
2018-12-22T01:31:31.433Z,6.91
2018-12-22T01:32:41.478Z,7.03
2018-12-22T01:33:51.557Z,6.95
2018-12-22T01:35:01.752Z,7.01
2018-12-22T01:36:11.817Z,7.04
2018-12-22T01:37:21.880Z,6.95
2018-12-22T01:38:31.947Z,6.98
2018-12-22T01:39:42.003Z,7.01
2018-12-22T01:40:52.059Z,7.04
2018-12-22T01:42:02.148Z,7.09
2018-12-22T01:43:12.224Z,6.98
2018-12-22T01:44:22.290Z,6.95
2018-12-22T01:45:32.344Z,7.01
2018-12-22T01:46:42.423Z,7.11
2018-12-22T01:47:52.066Z,7.04
2018-12-22T01:49:03.020Z,7.05
2018-12-22T01:50:13.169Z,7.05
2018-12-22T01:51:23.248Z,7.11
2018-12-22T01:52:33.638Z,7.04
2018-12-22T01:53:43.431Z,7
2018-12-22T01:54:53.499Z,7.15
2018-12-22T01:56:03.570Z,7.09
2018-12-22T01:57:13.662Z,7.21
2018-12-22T01:58:23.834Z,7.05
2018-12-22T01:59:33.963Z,7.16
2018-12-22T02:00:44.071Z,7.12
2018-12-22T02:01:54.145Z,7.11
2018-12-22T02:03:03.955Z,7.22
2018-12-22T02:04:14.035Z,7.19
2018-12-22T02:05:24.100Z,7.22
2018-12-22T02:06:34.174Z,7.21
2018-12-22T02:07:44.278Z,7.22
2018-12-22T02:08:54.097Z,7.18
2018-12-22T02:10:04.162Z,7.19
2018-12-22T02:11:14.212Z,7.29
2018-12-22T02:12:24.276Z,7.31
2018-12-22T02:13:34.101Z,7.4
2018-12-22T02:14:44.236Z,7.37
2018-12-22T02:15:53.800Z,7.44
2018-12-22T02:17:03.616Z,7.51
2018-12-22T02:18:13.674Z,7.49
2018-12-22T02:19:23.744Z,7.55
2018-12-22T02:20:33.800Z,7.58
2018-12-22T02:21:43.730Z,7.61
2018-12-22T02:22:53.811Z,7.58
2018-12-22T02:24:03.867Z,7.59
2018-12-22T02:25:13.659Z,7.73
2018-12-22T02:26:23.739Z,7.68
2018-12-22T02:27:33.792Z,7.74
2018-12-22T02:28:43.890Z,7.73
2018-12-22T02:30:02.637Z,7.73
2018-12-22T02:31:12.455Z,7.75
2018-12-22T02:32:23.320Z,7.8
2018-12-22T02:33:33.381Z,7.78
2018-12-22T02:34:43.684Z,7.85
2018-12-22T02:35:53.511Z,7.85
2018-12-22T02:37:03.592Z,7.89
2018-12-22T02:38:13.712Z,7.92
2018-12-22T02:39:23.844Z,7.89
2018-12-22T02:40:33.908Z,7.99
2018-12-22T02:41:44.064Z,7.89
2018-12-22T02:42:54.146Z,8.04
2018-12-22T02:44:04.427Z,7.92
2018-12-22T02:45:14.765Z,8.03
2018-12-22T02:46:24.940Z,7.96
2018-12-22T02:47:35.257Z,8.07
2018-12-22T02:48:45.332Z,8.07
2018-12-22T02:49:55.644Z,8.13
2018-12-22T02:51:05.498Z,8.09
2018-12-22T02:52:15.566Z,8.11
2018-12-22T02:53:25.651Z,8.13
2018-12-22T02:54:35.764Z,8.11
2018-12-22T02:55:45.866Z,8.11
2018-12-22T02:56:55.927Z,8.22
2018-12-22T02:58:06.440Z,8.11
2018-12-22T02:59:16.517Z,8.13
2018-12-22T03:00:26.585Z,8.11
2018-12-22T03:01:36.855Z,8.09
2018-12-22T03:02:46.992Z,8.11
2018-12-22T03:34:58.315Z,6.47
2018-12-22T03:36:08.156Z,6.52
2018-12-22T03:37:18.215Z,6.6
2018-12-22T03:38:28.069Z,6.55
2018-12-22T03:39:37.887Z,6.65
2018-12-22T03:40:47.969Z,6.78
2018-12-22T03:41:58.018Z,6.8
2018-12-22T03:43:08.095Z,6.98
2018-12-22T03:44:18.156Z,7
2018-12-22T03:45:27.752Z,7.11
2018-12-22T03:46:37.805Z,7.26
2018-12-22T03:47:47.409Z,7.39
2018-12-22T03:48:57.268Z,7.47
2018-12-22T03:50:07.322Z,7.55
2018-12-22T03:51:17.393Z,7.64
2018-12-22T03:52:27.245Z,7.75
2018-12-22T03:53:37.364Z,7.85
2018-12-22T03:54:47.159Z,7.89
2018-12-22T03:55:57.608Z,7.98
2018-12-22T03:57:07.428Z,7.89
2018-12-22T03:58:17.532Z,7.93
2018-12-22T03:59:30.048Z,7.95
2018-12-22T04:00:39.871Z,8.17
2018-12-22T04:01:49.769Z,8.16
2018-12-22T04:02:59.834Z,8.24
2018-12-22T04:04:09.685Z,8.11
2018-12-22T04:05:19.742Z,8.16
2018-12-22T04:06:29.816Z,8.22
2018-12-22T04:07:39.897Z,8.26
2018-12-22T04:08:50.093Z,8.21
2018-12-22T04:10:01.160Z,8.25
2018-12-22T04:11:11.231Z,8.28
2018-12-22T04:12:21.427Z,8.34
2018-12-22T04:13:31.250Z,8.42
2018-12-22T04:14:41.061Z,8.34
2018-12-22T04:15:51.127Z,8.36
2018-12-22T04:17:02.459Z,8.43
2018-12-22T04:18:12.272Z,8.52
2018-12-22T04:19:22.357Z,8.44
2018-12-22T04:20:32.489Z,8.5
2018-12-22T04:21:42.812Z,8.46
2018-12-22T04:22:52.885Z,8.61
2018-12-22T04:24:02.949Z,8.67
2018-12-22T04:25:12.745Z,8.69
2018-12-22T04:26:22.832Z,8.67
2018-12-22T04:27:32.884Z,8.82
2018-12-22T04:28:42.697Z,8.71
2018-12-22T04:29:53.014Z,8.76
2018-12-22T04:31:03.084Z,8.83
2018-12-22T04:32:13.278Z,8.79
2018-12-22T04:33:23.423Z,8.8
2018-12-22T04:34:33.504Z,8.9
2018-12-22T04:35:43.564Z,8.94
2018-12-22T04:36:53.609Z,8.95
2018-12-22T04:38:03.791Z,8.98
2018-12-22T04:39:13.819Z,8.92
2018-12-22T04:40:23.894Z,8.98
2018-12-22T04:41:33.724Z,8.92
2018-12-22T04:42:43.782Z,9.03
2018-12-22T04:43:53.890Z,9.08
2018-12-22T04:45:03.772Z,9.09
2018-12-22T04:46:13.826Z,9.11
2018-12-22T04:47:23.487Z,9.11
2018-12-22T04:48:33.547Z,9.12
2018-12-22T04:49:43.371Z,9.04
2018-12-22T04:50:53.191Z,9.09
2018-12-22T04:52:03.516Z,9.19
2018-12-22T04:53:13.316Z,9.12
2018-12-22T04:54:23.373Z,9.17
2018-12-22T04:55:33.543Z,9.21
2018-12-22T04:56:43.652Z,9.26
2018-12-22T04:57:53.462Z,9.2
2018-12-22T04:59:06.067Z,9.42
2018-12-22T05:00:16.523Z,9.38
2018-12-22T05:01:26.735Z,9.38
2018-12-22T05:02:36.388Z,9.52
2018-12-22T05:03:46.242Z,9.5
2018-12-22T05:04:56.053Z,9.63
2018-12-22T05:06:05.645Z,9.71
2018-12-22T05:07:15.714Z,9.71
2018-12-22T05:08:25.536Z,9.71
2018-12-22T05:09:35.601Z,9.72
2018-12-22T05:10:45.652Z,9.72
2018-12-22T05:11:55.729Z,9.84
2018-12-22T05:13:05.796Z,9.84
2018-12-22T05:14:16.119Z,9.82
2018-12-22T05:15:26.188Z,10.07
2018-12-22T05:16:36.249Z,10.1
2018-12-22T05:17:46.325Z,10.15
2018-12-22T05:18:56.388Z,10.28
2018-12-22T05:20:06.500Z,10.39
2018-12-22T05:21:16.563Z,10.47
2018-12-22T05:22:26.364Z,10.63
2018-12-22T05:23:36.258Z,10.63
2018-12-22T05:24:46.344Z,10.77
2018-12-22T05:25:56.164Z,10.87
2018-12-22T05:27:06.211Z,10.85
2018-12-22T05:28:16.259Z,10.95
2018-12-22T05:29:26.339Z,11.05
2018-12-22T05:30:35.891Z,11.16
2018-12-22T05:31:45.965Z,11.21
2018-12-22T05:32:56.027Z,11.33
2018-12-22T05:34:08.589Z,11.42
2018-12-22T05:35:18.561Z,11.56
2018-12-22T05:36:28.669Z,11.53
2018-12-22T05:37:38.732Z,11.61
2018-12-22T05:38:48.788Z,11.57
2018-12-22T05:39:58.597Z,11.6
2018-12-22T05:41:08.643Z,11.63
2018-12-22T05:42:18.684Z,11.57
2018-12-22T05:43:28.729Z,11.61
2018-12-22T05:44:38.786Z,11.64
2018-12-22T05:45:48.680Z,11.63
2018-12-22T05:46:58.739Z,11.71
2018-12-22T05:48:09.046Z,11.67
2018-12-22T05:49:19.234Z,11.64
2018-12-22T05:50:29.085Z,11.66
2018-12-22T05:51:39.357Z,11.82
2018-12-22T05:52:49.173Z,11.86
2018-12-22T05:53:58.988Z,11.84
2018-12-22T05:55:09.125Z,11.89
2018-12-22T05:56:19.179Z,11.89
2018-12-22T05:57:29.246Z,12.04
2018-12-22T05:58:39.298Z,11.98
2018-12-22T05:59:49.356Z,12.03
2018-12-22T06:01:08.244Z,11.98
2018-12-22T06:02:18.562Z,12.07
2018-12-22T06:03:28.369Z,12.03
2018-12-22T06:04:38.427Z,11.98
2018-12-22T06:05:48.288Z,12
2018-12-22T06:06:58.386Z,11.91
2018-12-22T06:08:08.641Z,11.97
2018-12-22T06:09:18.459Z,11.89
2018-12-22T06:10:28.539Z,11.94
2018-12-22T06:11:38.449Z,11.91
2018-12-22T06:12:48.529Z,12
2018-12-22T06:13:58.350Z,12.05
2018-12-22T06:15:10.637Z,12.03
2018-12-22T06:16:20.696Z,12.1
2018-12-22T06:17:32.415Z,12.11
2018-12-22T06:18:42.614Z,12.15
2018-12-22T06:19:52.724Z,12.15
2018-12-22T06:21:02.797Z,12.22
2018-12-22T06:22:12.898Z,12.19
2018-12-22T06:23:22.737Z,12.16
2018-12-22T06:24:34.522Z,12.16
2018-12-22T06:25:44.596Z,12.22
2018-12-22T06:26:54.666Z,12.26
2018-12-22T06:28:04.719Z,12.18
2018-12-22T06:29:14.790Z,12.23
2018-12-22T06:30:24.601Z,12.19
2018-12-22T06:31:34.425Z,12.25
2018-12-22T06:32:44.472Z,12.25
2018-12-22T06:33:54.541Z,12.19
2018-12-22T06:35:04.124Z,12.2
2018-12-22T06:36:14.213Z,12.19
2018-12-22T06:37:24.255Z,12.18
2018-12-22T06:38:34.400Z,12.18
2018-12-22T06:39:45.821Z,12.13
2018-12-22T06:40:55.883Z,12.18
2018-12-22T06:42:05.954Z,12.13
2018-12-22T06:43:16.020Z,12.18
2018-12-22T06:44:25.848Z,12.19
2018-12-22T06:45:35.677Z,12.1
2018-12-22T06:46:45.486Z,12.15
2018-12-22T06:47:56.250Z,12.1
2018-12-22T06:49:07.079Z,12.04
2018-12-22T06:50:17.412Z,11.94
2018-12-22T06:51:27.278Z,11.91
2018-12-22T06:52:37.590Z,11.91
2018-12-22T06:53:47.915Z,12.01
2018-12-22T06:54:57.721Z,12.01
2018-12-22T06:56:07.837Z,12.07
2018-12-22T06:57:17.634Z,12.05
2018-12-22T06:58:27.685Z,12.08
2018-12-22T06:59:37.768Z,12.16
2018-12-22T07:00:47.839Z,12.16
2018-12-22T07:01:57.911Z,12.2
2018-12-22T07:03:08.284Z,12.2
2018-12-22T07:04:18.346Z,12.19
2018-12-22T07:05:28.458Z,12.28
2018-12-22T07:06:38.528Z,12.22
2018-12-22T07:07:48.365Z,12.36
2018-12-22T07:08:58.177Z,12.28
2018-12-22T07:10:08.232Z,12.31
2018-12-22T07:11:18.287Z,12.34
2018-12-22T07:12:28.368Z,12.28
2018-12-22T07:13:38.726Z,12.34
2018-12-22T07:14:48.795Z,12.2
2018-12-22T07:15:58.652Z,12.22
2018-12-22T07:17:09.913Z,12.13
2018-12-22T07:18:19.999Z,12.13
2018-12-22T07:19:30.091Z,12.15
2018-12-22T07:20:40.154Z,12.22
2018-12-22T07:21:50.217Z,12.13
2018-12-22T07:23:01.119Z,12.22
2018-12-22T07:24:11.192Z,12.18
2018-12-22T07:25:21.258Z,12.26
2018-12-22T07:26:31.336Z,12.23
2018-12-22T07:27:41.143Z,12.25
2018-12-22T07:28:51.208Z,12.33
2018-12-22T07:30:03.063Z,12.36
2018-12-22T07:31:13.127Z,12.33
2018-12-22T07:32:22.983Z,12.29
2018-12-22T07:33:32.771Z,12.33
2018-12-22T07:34:43.090Z,12.37
2018-12-22T07:35:53.151Z,12.25
2018-12-22T07:37:04.872Z,12.22
2018-12-22T07:38:14.931Z,12.25
2018-12-22T07:39:25.297Z,12.15
2018-12-22T07:40:34.901Z,12.26
2018-12-22T07:41:45.073Z,12.15
2018-12-22T07:42:55.346Z,12.13
2018-12-22T07:44:05.482Z,12.11
2018-12-22T07:45:15.544Z,12.23
2018-12-22T07:46:25.351Z,12.18
2018-12-22T07:47:35.426Z,12.15
2018-12-22T07:48:45.540Z,12.22
2018-12-22T07:49:55.620Z,12.2
2018-12-22T07:51:08.559Z,12.15
2018-12-22T07:52:18.585Z,12.25
2018-12-22T07:53:28.696Z,12.25
2018-12-22T07:54:38.758Z,12.13
2018-12-22T07:55:49.114Z,12.2
2018-12-22T07:56:59.187Z,12.23
2018-12-22T07:58:09.289Z,12.33
2018-12-22T07:59:19.449Z,12.41
2018-12-22T08:00:37.166Z,12.43
2018-12-22T08:01:47.245Z,12.48
2018-12-22T08:02:57.060Z,12.44
2018-12-22T08:04:06.883Z,12.45
2018-12-22T08:05:16.442Z,12.56
2018-12-22T08:06:26.520Z,12.61
2018-12-22T08:07:36.623Z,12.74
2018-12-22T08:08:46.701Z,12.88
2018-12-22T08:09:56.831Z,12.94
2018-12-22T08:11:06.932Z,12.91
2018-12-22T08:12:17.010Z,12.91
2018-12-22T08:13:27.031Z,13.01
2018-12-22T08:14:37.109Z,12.98
2018-12-22T08:15:48.006Z,12.96
2018-12-22T08:16:58.070Z,13.06
2018-12-22T08:18:08.170Z,13.06
2018-12-22T08:19:18.243Z,13.09
2018-12-22T08:20:28.334Z,12.99
2018-12-22T08:21:40.092Z,12.99
2018-12-22T08:22:51.805Z,12.99
2018-12-22T08:24:01.960Z,13.03
2018-12-22T08:25:11.784Z,13.03
2018-12-22T08:26:21.860Z,13.07
2018-12-22T08:27:31.944Z,13.07
2018-12-22T08:28:41.772Z,13.06
2018-12-22T08:29:51.642Z,13.09
2018-12-22T08:31:01.717Z,13.11
2018-12-22T08:32:11.539Z,13.17
2018-12-22T08:33:21.108Z,13.14
2018-12-22T08:34:31.184Z,13.11
2018-12-22T08:35:40.989Z,13.16
2018-12-22T08:36:51.062Z,13.17
2018-12-22T08:38:03.168Z,13.16
2018-12-22T08:39:13.310Z,13.2
2018-12-22T08:40:23.377Z,13.17
2018-12-22T08:41:33.442Z,13.24
2018-12-22T08:42:43.516Z,13.29
2018-12-22T08:43:53.059Z,13.32
2018-12-22T08:45:03.329Z,13.45
2018-12-22T08:46:13.396Z,13.31
2018-12-22T08:47:23.253Z,13.51
2018-12-22T08:48:33.409Z,13.66
2018-12-22T08:49:43.499Z,13.54
2018-12-22T08:50:53.815Z,13.75
2018-12-22T08:52:04.088Z,13.94
2018-12-22T08:53:14.261Z,13.99
2018-12-22T08:54:24.329Z,13.97
2018-12-22T08:55:34.157Z,13.94
2018-12-22T08:56:44.266Z,13.93
2018-12-22T08:57:53.897Z,13.93
2018-12-22T08:59:04.850Z,13.93
2018-12-22T09:00:15.484Z,13.87
2018-12-22T09:01:25.786Z,13.79
2018-12-22T09:02:36.069Z,13.81
2018-12-22T09:03:45.894Z,13.93
2018-12-22T09:04:55.969Z,13.88
2018-12-22T09:06:06.162Z,13.86
2018-12-22T09:07:16.252Z,14.02
2018-12-22T09:08:26.622Z,13.97
2018-12-22T09:09:36.603Z,14.01
2018-12-22T09:10:46.417Z,13.93
2018-12-22T09:11:56.610Z,14.08
2018-12-22T09:13:07.348Z,14.06
2018-12-22T09:14:26.179Z,14.27
2018-12-22T09:15:35.982Z,14.21
2018-12-22T09:16:46.040Z,14.28
2018-12-22T09:17:55.985Z,14.2
2018-12-22T09:19:07.851Z,14.23
2018-12-22T09:20:18.033Z,14.16
2018-12-22T09:21:28.158Z,14.05
2018-12-22T09:22:38.269Z,14.06
2018-12-22T09:23:48.386Z,13.97
2018-12-22T09:24:58.181Z,13.9
2018-12-22T09:26:11.071Z,13.97
2018-12-22T09:27:21.275Z,13.94
2018-12-22T09:28:31.631Z,13.99
2018-12-22T09:29:41.674Z,13.94
2018-12-22T09:30:51.495Z,14.01
2018-12-22T09:32:08.650Z,14.08
2018-12-22T09:33:18.713Z,14.11
2018-12-22T09:34:28.784Z,14.24
2018-12-22T09:35:38.609Z,14.21
2018-12-22T09:36:49.028Z,14.33
2018-12-22T09:37:59.121Z,14.33
2018-12-22T09:39:10.728Z,14.38
2018-12-22T09:40:20.798Z,14.38
2018-12-22T09:41:30.875Z,14.44
2018-12-22T09:42:41.014Z,14.45
2018-12-22T09:43:50.836Z,14.33
2018-12-22T09:45:00.696Z,14.23
2018-12-22T09:46:10.781Z,14.2
2018-12-22T09:47:20.606Z,14.27
2018-12-22T09:48:30.791Z,14.27
2018-12-22T09:49:40.352Z,14.2
2018-12-22T09:50:50.434Z,14.2
2018-12-22T09:52:01.360Z,14.2
2018-12-22T09:53:12.511Z,14.31
2018-12-22T09:54:22.351Z,14.23
2018-12-22T09:55:32.467Z,14.19
2018-12-22T09:56:42.541Z,14.21
2018-12-22T09:57:52.909Z,14.26
2018-12-22T09:59:03.025Z,14.19
2018-12-22T10:00:14.521Z,14.2
2018-12-22T10:01:24.747Z,14.2
2018-12-22T10:02:34.572Z,14.23
2018-12-22T10:03:44.652Z,14.27
2018-12-22T10:04:54.759Z,14.28
2018-12-22T10:06:04.868Z,14.26
2018-12-22T10:07:15.177Z,14.33
2018-12-22T10:08:25.002Z,14.41
2018-12-22T10:09:34.854Z,14.45
2018-12-22T10:10:45.064Z,14.56
2018-12-22T10:11:55.191Z,14.51
2018-12-22T10:13:05.255Z,14.51
2018-12-22T10:14:15.429Z,14.57
2018-12-22T10:15:25.499Z,14.48
2018-12-22T10:16:35.602Z,14.52
2018-12-22T10:17:45.699Z,14.52
2018-12-22T10:18:55.787Z,14.45
2018-12-22T10:20:05.626Z,14.48
2018-12-22T10:21:15.725Z,14.45
2018-12-22T10:22:25.780Z,14.64
2018-12-22T10:23:35.335Z,14.61
2018-12-22T10:24:45.417Z,14.63
2018-12-22T10:25:55.492Z,14.86
2018-12-22T10:27:06.953Z,14.87
2018-12-22T10:28:16.798Z,15.05
2018-12-22T10:29:26.387Z,15.1
2018-12-22T10:30:36.205Z,15.1
2018-12-22T10:31:46.004Z,15.1
2018-12-22T10:32:56.114Z,14.98
2018-12-22T10:34:07.764Z,14.95
2018-12-22T10:35:17.835Z,14.97
2018-12-22T10:36:27.391Z,14.98
2018-12-22T10:37:37.542Z,15.01
2018-12-22T10:38:47.099Z,15.05
2018-12-22T10:39:56.919Z,15.08
2018-12-22T10:41:06.871Z,15.1
2018-12-22T10:42:16.673Z,14.98
2018-12-22T10:43:26.492Z,15.12
2018-12-22T10:44:36.587Z,15.15
2018-12-22T10:45:46.657Z,15.27
2018-12-22T10:46:56.559Z,15.3
2018-12-22T10:48:08.572Z,15.4
2018-12-22T10:49:18.620Z,15.34
2018-12-22T10:50:28.683Z,15.23
2018-12-22T10:51:38.965Z,15.22
2018-12-22T10:52:51.267Z,15.15
2018-12-22T10:54:01.340Z,15.13
2018-12-22T10:55:11.426Z,15.18
2018-12-22T10:56:21.533Z,15.22
2018-12-22T10:57:31.700Z,15.33
2018-12-22T10:58:41.983Z,15.43
2018-12-22T10:59:52.134Z,15.49
2018-12-22T11:01:02.230Z,15.49
2018-12-22T11:02:12.313Z,15.47
2018-12-22T11:03:22.428Z,15.33
2018-12-22T11:04:32.496Z,15.3
2018-12-22T11:05:42.653Z,15.19
2018-12-22T11:06:52.741Z,15.25
2018-12-22T11:08:02.915Z,15.2
2018-12-22T11:09:14.756Z,15.22
2018-12-22T11:10:25.495Z,15.15
2018-12-22T11:11:36.543Z,15.13
2018-12-22T11:12:47.360Z,15.26
2018-12-22T11:13:57.715Z,15.33
2018-12-22T11:15:08.496Z,15.47
2018-12-22T11:16:18.616Z,15.65
2018-12-22T11:17:28.721Z,15.83
2018-12-22T11:18:38.813Z,15.98
2018-12-22T11:19:48.906Z,15.99
2018-12-22T11:20:59.026Z,16.1
2018-12-22T11:22:09.132Z,16.22
2018-12-22T11:23:25.395Z,16.29
2018-12-22T11:24:35.365Z,16.36
2018-12-22T11:25:45.461Z,16.39
2018-12-22T11:26:55.543Z,16.34
2018-12-22T11:28:05.629Z,16.42
2018-12-22T11:29:15.787Z,16.34
2018-12-22T11:30:25.882Z,16.37
2018-12-22T11:31:39.929Z,16.44
2018-12-22T11:32:50.025Z,16.44
2018-12-22T11:34:00.120Z,16.58
2018-12-22T11:35:09.944Z,16.69
2018-12-22T11:36:19.803Z,16.72
2018-12-22T11:37:29.918Z,16.99
2018-12-22T11:38:39.824Z,16.97
2018-12-22T11:39:49.986Z,16.81
2018-12-22T11:41:00.085Z,16.9
2018-12-22T11:42:10.151Z,16.85
2018-12-22T11:43:20.218Z,17.06
2018-12-22T11:44:30.067Z,17.31
2018-12-22T11:45:40.204Z,17.49
2018-12-22T11:46:50.355Z,17.49
2018-12-22T11:48:00.456Z,17.63
2018-12-22T11:49:10.302Z,17.76
2018-12-22T11:50:20.380Z,17.76
2018-12-22T11:51:30.473Z,17.88
2018-12-22T11:52:41.999Z,18.05
2018-12-22T11:53:52.090Z,18.06
2018-12-22T11:55:01.901Z,18.1
2018-12-22T11:56:12.007Z,18.44
2018-12-22T11:57:22.110Z,18.69
2018-12-22T11:58:32.205Z,18.82
2018-12-22T11:59:43.721Z,18.75
2018-12-22T12:00:54.065Z,18.51
2018-12-22T12:02:12.009Z,18.23
2018-12-22T12:03:22.111Z,18.06
2018-12-22T12:04:31.993Z,17.86
2018-12-22T12:05:42.097Z,17.71
2018-12-22T12:06:52.182Z,17.76
2018-12-22T12:08:03.053Z,17.79
2018-12-22T12:09:12.879Z,17.71
2018-12-22T12:10:22.705Z,17.57
2018-12-22T12:11:32.584Z,17.22
2018-12-22T12:12:42.905Z,16.84
2018-12-22T12:13:52.955Z,16.44
2018-12-22T12:15:03.044Z,16.14
2018-12-22T12:16:13.121Z,15.8
2018-12-22T12:17:23.182Z,15.41
2018-12-22T12:18:33.311Z,15.13
2018-12-22T12:19:43.401Z,14.95
2018-12-22T12:20:53.318Z,14.63
2018-12-22T12:22:03.665Z,14.6
2018-12-22T12:23:13.889Z,14.38
2018-12-22T12:24:23.984Z,14.31
2018-12-22T12:25:33.794Z,14.2
2018-12-22T12:26:43.996Z,14.09
2018-12-22T12:27:54.116Z,13.99
2018-12-22T12:29:04.445Z,13.86
2018-12-22T12:30:14.286Z,13.78
2018-12-22T12:31:24.117Z,13.7
2018-12-22T12:32:33.974Z,13.66
2018-12-22T12:33:44.060Z,13.62
2018-12-22T12:34:53.753Z,13.54
2018-12-22T12:36:04.454Z,13.51
2018-12-22T12:37:14.532Z,13.45
2018-12-22T12:38:24.667Z,13.36
2018-12-22T12:39:34.801Z,13.36
2018-12-22T12:40:45.152Z,13.21
2018-12-22T12:41:54.995Z,13.14
2018-12-22T12:43:07.990Z,13.07
2018-12-22T12:44:18.127Z,12.98
2018-12-22T12:45:27.982Z,12.98
2018-12-22T12:46:39.400Z,13.02
2018-12-22T12:47:49.547Z,12.95
2018-12-22T12:48:59.606Z,12.95
2018-12-22T12:50:09.675Z,12.92
2018-12-22T12:51:19.518Z,12.86
2018-12-22T12:52:29.604Z,12.96
2018-12-22T12:53:39.682Z,13.03
2018-12-22T12:54:49.767Z,13.1
2018-12-22T12:55:59.601Z,13.16
2018-12-22T12:57:09.715Z,13.2
2018-12-22T12:58:19.821Z,13.17
2018-12-22T12:59:30.233Z,13.14
2018-12-22T13:00:40.348Z,13.09
2018-12-22T13:01:50.511Z,13.11
2018-12-22T13:03:10.746Z,13.07
2018-12-22T13:04:20.310Z,13.09
2018-12-22T13:05:30.387Z,13.09
2018-12-22T13:06:40.448Z,13.09
2018-12-22T13:07:50.544Z,13.06
2018-12-22T13:09:02.610Z,13.13
2018-12-22T13:10:12.689Z,13.14
2018-12-22T13:11:22.242Z,13.16
2018-12-22T13:12:32.344Z,13.14
2018-12-22T13:13:42.439Z,13.14
2018-12-22T13:14:52.536Z,13.17
2018-12-22T13:16:04.443Z,13.14
2018-12-22T13:17:14.555Z,13.16
2018-12-22T13:18:24.381Z,13.17
2018-12-22T13:19:34.445Z,13.2
2018-12-22T13:20:44.533Z,13.24
2018-12-22T13:21:54.828Z,13.31
2018-12-22T13:23:05.120Z,13.35
2018-12-22T13:24:15.219Z,13.36
2018-12-22T13:25:26.371Z,13.35
2018-12-22T13:26:41.759Z,13.47
2018-12-22T13:27:51.820Z,13.57
2018-12-22T13:29:02.012Z,13.6
2018-12-22T13:30:12.313Z,13.62
2018-12-22T13:31:22.367Z,13.68
2018-12-22T13:32:32.488Z,13.72
2018-12-22T13:33:43.032Z,13.62
2018-12-22T13:34:52.850Z,13.63
2018-12-22T13:36:03.000Z,13.72
2018-12-22T13:37:13.245Z,13.68
2018-12-22T13:38:23.331Z,13.78
2018-12-22T13:39:33.428Z,13.87
2018-12-22T13:40:43.454Z,13.94
2018-12-22T13:41:53.593Z,13.88
2018-12-22T13:43:03.667Z,13.99
2018-12-22T13:44:13.486Z,13.9
2018-12-22T13:45:23.582Z,13.91
2018-12-22T13:46:34.159Z,13.93
2018-12-22T13:47:44.663Z,13.94
2018-12-22T13:48:57.198Z,13.94
2018-12-22T13:50:08.673Z,13.94
2018-12-22T13:51:19.409Z,13.94
2018-12-22T13:52:29.916Z,13.97
2018-12-22T13:53:40.040Z,14.03
2018-12-22T13:54:50.115Z,14.08
2018-12-22T13:56:01.416Z,14.08
2018-12-22T13:57:11.482Z,14.23
2018-12-22T13:58:21.545Z,14.27
2018-12-22T13:59:31.625Z,14.27
2018-12-22T14:00:41.497Z,14.2
2018-12-22T14:01:51.676Z,14.21
2018-12-22T14:03:01.761Z,14.23
2018-12-22T14:04:11.571Z,14.16
2018-12-22T14:05:21.654Z,14.19
2018-12-22T14:06:31.669Z,14.15
2018-12-22T14:07:41.744Z,14.21
2018-12-22T14:08:51.580Z,14.28
2018-12-22T14:10:01.659Z,14.27
2018-12-22T14:11:11.743Z,14.24
2018-12-22T14:12:21.545Z,14.31
2018-12-22T14:13:31.631Z,14.24
2018-12-22T14:14:41.696Z,14.28
2018-12-22T14:15:51.510Z,14.31
2018-12-22T14:17:01.763Z,14.28
2018-12-22T14:18:11.669Z,14.26
2018-12-22T14:19:21.875Z,14.3
2018-12-22T14:20:31.974Z,14.26
2018-12-22T14:21:42.050Z,14.26
2018-12-22T14:22:51.884Z,14.21
2018-12-22T14:24:01.975Z,14.2
2018-12-22T14:25:12.075Z,14.16
2018-12-22T14:26:22.198Z,14.24
2018-12-22T14:27:32.325Z,14.15
2018-12-22T14:28:42.144Z,14.15
2018-12-22T14:29:52.181Z,14.13
2018-12-22T14:31:02.273Z,14.08
2018-12-22T14:32:12.408Z,14.11
2018-12-22T14:33:22.238Z,14.11
2018-12-22T14:34:32.321Z,14.02
2018-12-22T14:35:42.461Z,13.95
2018-12-22T14:36:52.532Z,13.99
2018-12-22T14:38:02.731Z,13.9
2018-12-22T14:39:12.825Z,13.97
2018-12-22T14:40:22.657Z,13.93
2018-12-22T14:41:32.317Z,13.88
2018-12-22T14:42:42.157Z,13.9
2018-12-22T14:43:52.241Z,13.86
2018-12-22T14:45:02.118Z,13.93
2018-12-22T14:46:12.335Z,13.94
2018-12-22T14:47:22.531Z,13.91
2018-12-22T14:48:32.381Z,13.9
2018-12-22T14:49:42.471Z,13.9
2018-12-22T14:50:52.538Z,13.9
2018-12-22T14:52:02.611Z,13.87
2018-12-22T14:53:12.439Z,13.91
2018-12-22T14:54:22.288Z,13.78
2018-12-22T14:55:32.108Z,13.76
2018-12-22T14:56:42.231Z,13.88
2018-12-22T14:57:52.317Z,13.87
2018-12-22T14:59:03.302Z,13.84
2018-12-22T15:00:14.083Z,13.88
2018-12-22T15:01:24.107Z,13.88
2018-12-22T15:02:40.203Z,13.86
2018-12-22T15:03:50.270Z,13.95
2018-12-22T15:05:00.167Z,13.86
2018-12-22T15:06:10.041Z,13.87
2018-12-22T15:07:20.185Z,13.94
2018-12-22T15:08:30.365Z,13.9
2018-12-22T15:09:40.686Z,13.9
2018-12-22T15:10:50.768Z,13.87
2018-12-22T15:12:00.870Z,13.83
2018-12-22T15:13:11.018Z,13.87
2018-12-22T15:14:20.858Z,13.83
2018-12-22T15:15:31.103Z,13.78
2018-12-22T15:16:41.206Z,13.76
2018-12-22T15:17:51.020Z,13.72
2018-12-22T15:19:01.232Z,13.66
2018-12-22T15:20:11.331Z,13.7
2018-12-22T15:21:21.150Z,13.68
2018-12-22T15:22:31.434Z,13.6
2018-12-22T15:23:41.255Z,13.53
2018-12-22T15:24:51.615Z,13.58
2018-12-22T15:26:01.682Z,13.62
2018-12-22T15:27:11.748Z,13.58
2018-12-22T15:28:21.557Z,13.54
2018-12-22T15:29:31.847Z,13.63
2018-12-22T15:30:41.949Z,13.47
2018-12-22T15:31:52.091Z,13.5
2018-12-22T15:33:01.921Z,13.48
2018-12-22T15:34:12.188Z,13.55
2018-12-22T15:35:22.017Z,13.54
2018-12-22T15:36:32.165Z,13.45
2018-12-22T15:37:42.258Z,13.53
2018-12-22T15:38:52.105Z,13.53
2018-12-22T15:40:02.187Z,13.53
2018-12-22T15:41:12.025Z,13.54
2018-12-22T15:42:22.097Z,13.44
2018-12-22T15:43:32.192Z,13.5
2018-12-22T15:44:42.269Z,13.47
2018-12-22T15:45:52.355Z,13.54
2018-12-22T15:47:02.426Z,13.6
2018-12-22T15:48:12.506Z,13.55